»·PEaware :: WAT602 KDEN-KLAS

WAT602 :: KDEN-KLAS

FLIGHT INFORMATION

Flight Status: Arrived
Operator:
Walker Air Transport
More flights by this operator :: More flights under this callsign
Pilot: Kevin M. (32630)
Aircraft: Cessna 700 Citation Longitude
(C700)
More flights by this aircraft type
Origin: KDEN Denver Intl
United States
Destination: KLAS McCarran Intl
United States
More flights between these airports :: More routes between these airports
Route: BAYLR6 TEHRU HVE GGAPP CHOWW1
File this flight plan on PilotEdge
Remarks: RMK / SIMBRIEF
Altitude:
(Current/Filed)
38,000ft
Speed:
(Current/Filed)
464kts
Departed: 06-Mar-21 10:06 PM
Arrived: 06-Mar-21 11:40 PM
Distance/Time
Traveled:
546nm/1:34
Distance/Time
To Go:
Arrived

Flight Plot

Page will automatically refresh every two minutes.

Flight plan parsing failed; only flown route is shown


Map Options




Map Legend


Flown Route
Filed Route
Departure Airport
Arrival Airport
Navaid (VOR, NDB)
Fix

Horizontal Profiles

Position Reports

Time Latitude Longitude Heading Altitude Ground
Speed
06-Mar-21 21:46 39.839350 -104.665355 182 5360ft 0kts
06-Mar-21 21:47 39.839350 -104.665355 182 5360ft 0kts
06-Mar-21 21:48 39.839350 -104.665355 182 5360ft 0kts
06-Mar-21 21:49 39.839350 -104.665355 182 5360ft 0kts
06-Mar-21 21:50 39.839350 -104.665355 182 5360ft 0kts
06-Mar-21 21:51 39.839350 -104.665355 182 5360ft 0kts
06-Mar-21 21:52 39.839350 -104.665355 182 5360ft 0kts
06-Mar-21 21:53 39.839350 -104.665355 182 5360ft 0kts
06-Mar-21 21:54 39.839350 -104.665355 182 5360ft 0kts
06-Mar-21 21:55 39.839350 -104.665355 182 5360ft 0kts
06-Mar-21 21:56 39.839350 -104.665355 182 5360ft 0kts
06-Mar-21 21:57 39.839350 -104.665355 182 5360ft 0kts
06-Mar-21 21:58 39.839350 -104.665355 182 5360ft 0kts
06-Mar-21 21:59 39.839350 -104.665355 182 5360ft 0kts
06-Mar-21 22:00 39.839350 -104.665355 182 5360ft 0kts
06-Mar-21 22:01 39.839350 -104.665355 182 5360ft 0kts
06-Mar-21 22:02 39.839350 -104.665355 182 5360ft 0kts
06-Mar-21 22:03 39.839350 -104.665355 182 5360ft 0kts
06-Mar-21 22:04 39.839098 -104.665317 149 5360ft 7kts
06-Mar-21 22:05 39.842799 -104.662484 0 5360ft 29kts
06-Mar-21 22:06 39.852911 -104.662363 0 5360ft 44kts
06-Mar-21 22:06 39.860670 -104.662272 11 5360ft 16kts
06-Mar-21 22:08 39.861061 -104.661668 87 5360ft 0kts
06-Mar-21 22:09 39.850981 -104.660216 183 5387ft 149kts
06-Mar-21 22:09 39.807083 -104.662873 203 7704ft 222kts
06-Mar-21 22:11 39.760717 -104.724322 265 9954ft 204kts
06-Mar-21 22:11 39.763830 -104.786235 278 11922ft 217kts
06-Mar-21 22:12 39.772169 -104.868601 275 16866ft 234kts
06-Mar-21 22:14 39.762674 -104.963079 252 18926ft 229kts
06-Mar-21 22:14 39.747160 -105.029115 251 19518ft 230kts
06-Mar-21 22:15 39.722097 -105.106242 247 23166ft 236kts
06-Mar-21 22:16 39.696097 -105.186995 248 26253ft 248kts
06-Mar-21 22:17 39.668341 -105.271138 248 28901ft 260kts
06-Mar-21 22:18 39.639220 -105.359155 247 31229ft 271kts
06-Mar-21 22:19 39.608924 -105.451296 247 33270ft 283kts
06-Mar-21 22:20 39.577268 -105.546533 246 35056ft 293kts
06-Mar-21 22:21 39.545670 -105.644842 251 36802ft 299kts
06-Mar-21 22:22 39.517434 -105.747824 249 38012ft 313kts
06-Mar-21 22:23 39.485661 -105.862880 249 38180ft 367kts
06-Mar-21 22:24 39.448443 -105.995979 249 38243ft 415kts
06-Mar-21 22:25 39.408655 -106.137613 249 38219ft 429kts
06-Mar-21 22:26 39.367580 -106.283092 249 38210ft 432kts
06-Mar-21 22:27 39.326303 -106.428494 249 38198ft 437kts
06-Mar-21 22:28 39.284163 -106.576075 248 38233ft 438kts
06-Mar-21 22:29 39.242632 -106.723437 250 38197ft 438kts
06-Mar-21 22:30 39.213532 -106.875199 253 38182ft 438kts
06-Mar-21 22:31 39.184457 -107.028058 253 38124ft 439kts
06-Mar-21 22:32 39.155026 -107.180990 253 38161ft 439kts
06-Mar-21 22:33 39.125484 -107.333294 253 38204ft 439kts
06-Mar-21 22:34 39.095768 -107.485857 253 38173ft 438kts
06-Mar-21 22:35 39.065959 -107.637679 253 38173ft 438kts
06-Mar-21 22:36 39.035815 -107.790014 253 38171ft 439kts
06-Mar-21 22:37 39.005498 -107.942138 252 38204ft 439kts
06-Mar-21 22:38 38.975051 -108.093725 252 38174ft 438kts
06-Mar-21 22:39 38.944398 -108.245351 252 38127ft 438kts
06-Mar-21 22:40 38.913425 -108.397392 252 38127ft 439kts
06-Mar-21 22:41 38.882339 -108.548892 252 38065ft 439kts
06-Mar-21 22:42 38.851099 -108.700055 252 38067ft 439kts
06-Mar-21 22:43 38.819608 -108.851365 252 38097ft 439kts
06-Mar-21 22:44 38.787934 -109.002519 252 38131ft 439kts
06-Mar-21 22:45 38.756135 -109.153120 251 38076ft 438kts
06-Mar-21 22:46 38.724181 -109.303549 251 38032ft 438kts
06-Mar-21 22:47 38.691973 -109.454032 252 38042ft 437kts
06-Mar-21 22:48 38.659732 -109.603651 252 38042ft 431kts
06-Mar-21 22:49 38.627756 -109.751054 252 38029ft 431kts
06-Mar-21 22:50 38.595479 -109.898831 251 38015ft 431kts
06-Mar-21 22:51 38.563135 -110.045983 252 38040ft 430kts
06-Mar-21 22:52 38.530554 -110.193130 252 38031ft 430kts
06-Mar-21 22:53 38.497843 -110.339980 252 38038ft 429kts
06-Mar-21 22:54 38.465012 -110.486401 252 38057ft 429kts
06-Mar-21 22:55 38.432056 -110.632481 252 38052ft 428kts
06-Mar-21 22:56 38.377677 -110.765790 232 38057ft 425kts
06-Mar-21 22:57 38.305096 -110.885039 233 38057ft 426kts
06-Mar-21 22:58 38.232560 -111.004147 233 38051ft 426kts
06-Mar-21 22:59 38.159987 -111.123239 232 38049ft 425kts
06-Mar-21 23:00 38.087110 -111.242403 232 38064ft 427kts
06-Mar-21 23:01 38.014427 -111.360991 233 38047ft 425kts
06-Mar-21 23:02 37.941642 -111.479124 233 38176ft 425kts
06-Mar-21 23:03 37.868861 -111.596896 232 38200ft 425kts
06-Mar-21 23:04 37.795710 -111.714831 233 38193ft 424kts
06-Mar-21 23:05 37.722974 -111.831731 233 38176ft 424kts
06-Mar-21 23:06 37.649942 -111.948652 233 38201ft 424kts
06-Mar-21 23:07 37.576776 -112.065328 233 38192ft 424kts
06-Mar-21 23:08 37.507153 -112.184972 239 38191ft 422kts
06-Mar-21 23:09 37.442836 -112.308950 238 37625ft 426kts
06-Mar-21 23:10 37.377949 -112.434022 238 36457ft 428kts
06-Mar-21 23:11 37.312375 -112.559893 238 35283ft 431kts
06-Mar-21 23:12 37.246330 -112.686072 238 34148ft 435kts
06-Mar-21 23:13 37.179407 -112.813408 238 32981ft 438kts
06-Mar-21 23:14 37.111935 -112.941234 238 31797ft 443kts
06-Mar-21 23:15 37.043697 -113.070081 238 30564ft 447kts
06-Mar-21 23:16 36.977035 -113.195357 238 29176ft 390kts
06-Mar-21 23:17 36.917080 -113.307800 238 27793ft 391kts
06-Mar-21 23:18 36.856315 -113.421342 238 26405ft 396kts
06-Mar-21 23:19 36.794861 -113.535795 238 24982ft 384kts
06-Mar-21 23:20 36.737920 -113.642026 238 23583ft 367kts
06-Mar-21 23:21 36.680646 -113.748393 238 22237ft 371kts
06-Mar-21 23:22 36.623697 -113.853779 238 20793ft 375kts
06-Mar-21 23:23 36.562993 -113.959813 233 19267ft 374kts
06-Mar-21 23:24 36.507885 -114.049243 234 17513ft 300kts
06-Mar-21 23:25 36.457917 -114.129118 233 16405ft 294kts
06-Mar-21 23:26 36.407560 -114.210379 233 15242ft 299kts
06-Mar-21 23:27 36.355900 -114.291216 232 14085ft 299kts
06-Mar-21 23:28 36.304577 -114.371941 231 12961ft 302kts
06-Mar-21 23:29 36.256597 -114.457927 240 11763ft 305kts
06-Mar-21 23:30 36.226804 -114.554954 249 10537ft 310kts
06-Mar-21 23:31 36.204688 -114.634238 248 9659ft 313kts
06-Mar-21 23:32 36.177660 -114.734237 247 8433ft 273kts
06-Mar-21 23:33 36.154631 -114.817542 247 7290ft 251kts
06-Mar-21 23:34 36.138987 -114.900334 257 6772ft 249kts
06-Mar-21 23:35 36.138577 -114.988145 271 5415ft 265kts
06-Mar-21 23:36 36.143890 -115.075149 273 3959ft 249kts
06-Mar-21 23:37 36.126901 -115.133981 230 3092ft 150kts
06-Mar-21 23:38 36.095173 -115.159012 205 2182ft 126kts
06-Mar-21 23:39 36.083775 -115.166666 233 2182ft 0kts
06-Mar-21 23:40 36.082748 -115.168325 286 2182ft 16kts
06-Mar-21 23:41 36.080853 -115.171150 87 2181ft 5kts
06-Mar-21 23:42 36.080856 -115.171106 84 2181ft 0kts
06-Mar-21 23:43 36.080856 -115.171106 84 2181ft 0kts
06-Mar-21 23:44 36.080856 -115.171106 84 2181ft 0kts

Navigation Log

Ident Type
Flight plan parsing failed, navigation log unavailable